sensor_id;sensor_type;location;lat;lon;timestamp;temperature;humidity
17859;DHT22;35426;30.698;104.050;2023-01-26T00:01:06;7.10;99.90
17859;DHT22;35426;30.698;104.050;2023-01-26T00:03:40;7.20;99.90
17859;DHT22;35426;30.698;104.050;2023-01-26T00:06:14;7.20;99.90
17859;DHT22;35426;30.698;104.050;2023-01-26T00:08:49;7.20;99.90
17859;DHT22;35426;30.698;104.050;2023-01-26T00:11:24;7.00;99.90
17859;DHT22;35426;30.698;104.050;2023-01-26T00:14:00;7.00;99.90
17859;DHT22;35426;30.698;104.050;2023-01-26T00:16:35;7.20;99.90
17859;DHT22;35426;30.698;104.050;2023-01-26T00:19:08;7.10;99.90
17859;DHT22;35426;30.698;104.050;2023-01-26T00:21:41;7.10;99.90
17859;DHT22;35426;30.698;104.050;2023-01-26T00:24:14;7.10;99.90
17859;DHT22;35426;30.698;104.050;2023-01-26T00:26:47;7.10;99.90
17859;DHT22;35426;30.698;104.050;2023-01-26T00:29:22;7.20;99.90
17859;DHT22;35426;30.698;104.050;2023-01-26T00:31:56;7.30;99.90
17859;DHT22;35426;30.698;104.050;2023-01-26T00:34:29;7.20;99.90
17859;DHT22;35426;30.698;104.050;2023-01-26T00:37:03;7.20;99.90
17859;DHT22;35426;30.698;104.050;2023-01-26T00:39:37;7.20;99.90
17859;DHT22;35426;30.698;104.050;2023-01-26T00:42:11;7.30;99.90
17859;DHT22;35426;30.698;104.050;2023-01-26T00:44:46;7.20;99.90
17859;DHT22;35426;30.698;104.050;2023-01-26T00:47:20;7.20;99.90
17859;DHT22;35426;30.698;104.050;2023-01-26T00:49:53;7.30;99.90
17859;DHT22;35426;30.698;104.050;2023-01-26T00:52:29;7.30;99.90
17859;DHT22;35426;30.698;104.050;2023-01-26T00:55:04;7.30;99.90
17859;DHT22;35426;30.698;104.050;2023-01-26T00:57:37;7.30;99.90
17859;DHT22;35426;30.698;104.050;2023-01-26T01:00:16;7.30;99.90
17859;DHT22;35426;30.698;104.050;2023-01-26T01:02:49;7.30;99.90
17859;DHT22;35426;30.698;104.050;2023-01-26T01:05:22;7.30;99.90
17859;DHT22;35426;30.698;104.050;2023-01-26T01:07:56;7.40;99.90
17859;DHT22;35426;30.698;104.050;2023-01-26T01:10:35;7.30;99.90
17859;DHT22;35426;30.698;104.050;2023-01-26T01:13:09;7.30;99.90
17859;DHT22;35426;30.698;104.050;2023-01-26T01:15:45;7.40;99.90
17859;DHT22;35426;30.698;104.050;2023-01-26T01:18:18;7.40;99.90
17859;DHT22;35426;30.698;104.050;2023-01-26T01:20:52;7.40;99.90
17859;DHT22;35426;30.698;104.050;2023-01-26T01:23:27;7.40;99.90
17859;DHT22;35426;30.698;104.050;2023-01-26T01:26:01;7.50;99.90
17859;DHT22;35426;30.698;104.050;2023-01-26T01:28:34;7.40;99.90
17859;DHT22;35426;30.698;104.050;2023-01-26T01:31:10;7.30;99.90
17859;DHT22;35426;30.698;104.050;2023-01-26T01:33:44;7.30;99.90
17859;DHT22;35426;30.698;104.050;2023-01-26T01:36:20;7.40;99.90
17859;DHT22;35426;30.698;104.050;2023-01-26T01:38:53;7.40;99.90
17859;DHT22;35426;30.698;104.050;2023-01-26T01:41:27;7.40;99.90
17859;DHT22;35426;30.698;104.050;2023-01-26T01:44:14;7.40;99.90
17859;DHT22;35426;30.698;104.050;2023-01-26T01:46:52;7.40;99.90
17859;DHT22;35426;30.698;104.050;2023-01-26T01:49:28;7.50;99.90
17859;DHT22;35426;30.698;104.050;2023-01-26T01:52:04;7.50;99.90
17859;DHT22;35426;30.698;104.050;2023-01-26T01:54:42;7.50;99.90
17859;DHT22;35426;30.698;104.050;2023-01-26T01:57:20;7.40;99.90
17859;DHT22;35426;30.698;104.050;2023-01-26T02:00:01;7.40;99.90
17859;DHT22;35426;30.698;104.050;2023-01-26T02:02:45;7.60;99.90
17859;DHT22;35426;30.698;104.050;2023-01-26T02:05:53;7.60;99.90
17859;DHT22;35426;30.698;104.050;2023-01-26T02:08:31;7.70;99.90
17859;DHT22;35426;30.698;104.050;2023-01-26T02:11:08;7.60;99.90
17859;DHT22;35426;30.698;104.050;2023-01-26T02:13:45;7.60;99.90
17859;DHT22;35426;30.698;104.050;2023-01-26T02:16:19;7.50;99.90
17859;DHT22;35426;30.698;104.050;2023-01-26T02:18:55;7.60;99.90
17859;DHT22;35426;30.698;104.050;2023-01-26T02:21:28;7.60;99.90
17859;DHT22;35426;30.698;104.050;2023-01-26T02:24:08;7.60;99.90
17859;DHT22;35426;30.698;104.050;2023-01-26T02:26:45;7.70;99.90
17859;DHT22;35426;30.698;104.050;2023-01-26T02:29:19;7.80;99.90
17859;DHT22;35426;30.698;104.050;2023-01-26T02:31:52;7.80;99.90
17859;DHT22;35426;30.698;104.050;2023-01-26T02:34:26;7.80;99.90
17859;DHT22;35426;30.698;104.050;2023-01-26T02:37:00;7.90;99.90
17859;DHT22;35426;30.698;104.050;2023-01-26T02:39:43;8.00;99.90
17859;DHT22;35426;30.698;104.050;2023-01-26T02:42:19;8.10;99.90
17859;DHT22;35426;30.698;104.050;2023-01-26T02:45:14;8.10;99.90
17859;DHT22;35426;30.698;104.050;2023-01-26T02:47:48;8.10;99.90
17859;DHT22;35426;30.698;104.050;2023-01-26T02:50:21;8.00;99.90
17859;DHT22;35426;30.698;104.050;2023-01-26T02:52:54;8.10;99.90
17859;DHT22;35426;30.698;104.050;2023-01-26T02:55:29;8.20;99.90
17859;DHT22;35426;30.698;104.050;2023-01-26T02:58:05;8.40;99.90
17859;DHT22;35426;30.698;104.050;2023-01-26T03:00:39;8.40;99.90
17859;DHT22;35426;30.698;104.050;2023-01-26T03:03:14;8.30;99.90
17859;DHT22;35426;30.698;104.050;2023-01-26T03:05:48;8.40;99.90
17859;DHT22;35426;30.698;104.050;2023-01-26T03:08:22;8.40;99.90
17859;DHT22;35426;30.698;104.050;2023-01-26T03:10:57;8.40;99.90
17859;DHT22;35426;30.698;104.050;2023-01-26T03:13:33;8.40;99.90
17859;DHT22;35426;30.698;104.050;2023-01-26T03:16:07;8.50;99.90
17859;DHT22;35426;30.698;104.050;2023-01-26T03:18:42;8.50;99.90
17859;DHT22;35426;30.698;104.050;2023-01-26T03:21:31;8.60;99.90
17859;DHT22;35426;30.698;104.050;2023-01-26T03:24:32;8.50;99.90
17859;DHT22;35426;30.698;104.050;2023-01-26T03:27:21;8.50;99.90
17859;DHT22;35426;30.698;104.050;2023-01-26T03:30:05;8.50;99.90
17859;DHT22;35426;30.698;104.050;2023-01-26T03:32:39;8.60;99.90
17859;DHT22;35426;30.698;104.050;2023-01-26T03:35:15;8.80;99.90
17859;DHT22;35426;30.698;104.050;2023-01-26T03:37:52;8.80;99.90
17859;DHT22;35426;30.698;104.050;2023-01-26T03:40:44;9.00;99.90
17859;DHT22;35426;30.698;104.050;2023-01-26T03:43:34;9.00;99.90
17859;DHT22;35426;30.698;104.050;2023-01-26T03:46:25;9.20;99.90
17859;DHT22;35426;30.698;104.050;2023-01-26T03:49:16;9.40;99.90
17859;DHT22;35426;30.698;104.050;2023-01-26T03:52:08;9.40;99.90
17859;DHT22;35426;30.698;104.050;2023-01-26T03:54:57;9.50;99.90
17859;DHT22;35426;30.698;104.050;2023-01-26T03:57:47;9.50;99.90
17859;DHT22;35426;30.698;104.050;2023-01-26T04:00:23;9.50;99.90
17859;DHT22;35426;30.698;104.050;2023-01-26T04:03:01;9.60;99.90
17859;DHT22;35426;30.698;104.050;2023-01-26T04:05:52;9.80;99.90
17859;DHT22;35426;30.698;104.050;2023-01-26T04:08:50;9.90;99.90
17859;DHT22;35426;30.698;104.050;2023-01-26T04:11:25;10.20;99.90
17859;DHT22;35426;30.698;104.050;2023-01-26T04:14:00;10.20;99.90
17859;DHT22;35426;30.698;104.050;2023-01-26T04:16:51;10.20;99.90
17859;DHT22;35426;30.698;104.050;2023-01-26T04:19:44;10.20;99.90
17859;DHT22;35426;30.698;104.050;2023-01-26T04:22:38;10.40;99.90
17859;DHT22;35426;30.698;104.050;2023-01-26T04:25:19;10.40;99.90
17859;DHT22;35426;30.698;104.050;2023-01-26T04:27:59;10.50;99.90
17859;DHT22;35426;30.698;104.050;2023-01-26T04:30:35;10.70;99.90
17859;DHT22;35426;30.698;104.050;2023-01-26T04:33:13;10.80;99.90
17859;DHT22;35426;30.698;104.050;2023-01-26T04:35:52;11.10;99.90
17859;DHT22;35426;30.698;104.050;2023-01-26T04:38:28;10.90;99.90
17859;DHT22;35426;30.698;104.050;2023-01-26T04:41:04;11.10;99.90
17859;DHT22;35426;30.698;104.050;2023-01-26T04:43:46;11.40;99.90
17859;DHT22;35426;30.698;104.050;2023-01-26T04:46:22;11.50;99.90
17859;DHT22;35426;30.698;104.050;2023-01-26T04:48:58;11.40;99.90
17859;DHT22;35426;30.698;104.050;2023-01-26T04:51:36;11.40;99.90
17859;DHT22;35426;30.698;104.050;2023-01-26T04:54:12;11.40;99.90
17859;DHT22;35426;30.698;104.050;2023-01-26T04:56:50;11.40;99.90
17859;DHT22;35426;30.698;104.050;2023-01-26T04:59:26;11.40;99.90
17859;DHT22;35426;30.698;104.050;2023-01-26T05:02:03;11.60;99.90
17859;DHT22;35426;30.698;104.050;2023-01-26T05:04:38;11.60;99.90
17859;DHT22;35426;30.698;104.050;2023-01-26T05:07:13;11.90;99.90
17859;DHT22;35426;30.698;104.050;2023-01-26T05:09:47;12.00;99.90
17859;DHT22;35426;30.698;104.050;2023-01-26T05:12:53;11.90;99.90
17859;DHT22;35426;30.698;104.050;2023-01-26T05:15:44;12.10;99.90
17859;DHT22;35426;30.698;104.050;2023-01-26T05:18:46;12.20;99.90
17859;DHT22;35426;30.698;104.050;2023-01-26T05:21:39;12.20;99.90
17859;DHT22;35426;30.698;104.050;2023-01-26T05:24:15;11.90;99.90
17859;DHT22;35426;30.698;104.050;2023-01-26T05:26:52;12.20;99.90
17859;DHT22;35426;30.698;104.050;2023-01-26T05:29:48;12.30;99.90
17859;DHT22;35426;30.698;104.050;2023-01-26T05:32:21;12.20;99.90
17859;DHT22;35426;30.698;104.050;2023-01-26T05:34:55;12.20;99.90
17859;DHT22;35426;30.698;104.050;2023-01-26T05:37:30;12.20;99.90
17859;DHT22;35426;30.698;104.050;2023-01-26T05:40:10;12.20;99.90
17859;DHT22;35426;30.698;104.050;2023-01-26T05:42:45;11.90;99.90
17859;DHT22;35426;30.698;104.050;2023-01-26T05:45:45;12.20;99.90
17859;DHT22;35426;30.698;104.050;2023-01-26T05:48:18;12.00;99.90
17859;DHT22;35426;30.698;104.050;2023-01-26T05:50:55;12.00;99.90
17859;DHT22;35426;30.698;104.050;2023-01-26T05:53:34;12.30;99.90
17859;DHT22;35426;30.698;104.050;2023-01-26T05:56:09;12.40;99.90
17859;DHT22;35426;30.698;104.050;2023-01-26T05:58:48;12.40;99.90
17859;DHT22;35426;30.698;104.050;2023-01-26T06:01:22;12.50;99.90
17859;DHT22;35426;30.698;104.050;2023-01-26T06:04:00;12.40;99.90
17859;DHT22;35426;30.698;104.050;2023-01-26T06:06:43;12.50;99.90
17859;DHT22;35426;30.698;104.050;2023-01-26T06:09:23;12.40;99.90
17859;DHT22;35426;30.698;104.050;2023-01-26T06:12:17;12.00;99.90
17859;DHT22;35426;30.698;104.050;2023-01-26T06:14:56;11.60;99.90
17859;DHT22;35426;30.698;104.050;2023-01-26T06:17:40;11.80;99.90
17859;DHT22;35426;30.698;104.050;2023-01-26T06:20:16;11.50;99.90
17859;DHT22;35426;30.698;104.050;2023-01-26T06:23:00;11.60;99.90
17859;DHT22;35426;30.698;104.050;2023-01-26T06:25:35;11.50;99.90
17859;DHT22;35426;30.698;104.050;2023-01-26T06:28:10;11.80;99.90
17859;DHT22;35426;30.698;104.050;2023-01-26T06:30:43;11.90;99.90
17859;DHT22;35426;30.698;104.050;2023-01-26T06:33:16;12.00;99.90
17859;DHT22;35426;30.698;104.050;2023-01-26T06:35:51;12.00;99.90
17859;DHT22;35426;30.698;104.050;2023-01-26T06:38:28;11.80;99.90
17859;DHT22;35426;30.698;104.050;2023-01-26T06:41:05;11.60;99.90
17859;DHT22;35426;30.698;104.050;2023-01-26T06:43:44;11.70;99.90
17859;DHT22;35426;30.698;104.050;2023-01-26T06:46:19;11.70;99.90
17859;DHT22;35426;30.698;104.050;2023-01-26T06:48:55;11.50;99.90
17859;DHT22;35426;30.698;104.050;2023-01-26T06:51:55;11.80;99.90
17859;DHT22;35426;30.698;104.050;2023-01-26T06:54:51;11.70;99.90
17859;DHT22;35426;30.698;104.050;2023-01-26T06:57:51;11.90;99.90
17859;DHT22;35426;30.698;104.050;2023-01-26T07:00:55;11.90;99.90
17859;DHT22;35426;30.698;104.050;2023-01-26T07:03:37;11.90;99.90
17859;DHT22;35426;30.698;104.050;2023-01-26T07:06:11;11.80;99.90
17859;DHT22;35426;30.698;104.050;2023-01-26T07:08:45;11.60;99.90
17859;DHT22;35426;30.698;104.050;2023-01-26T07:11:19;11.70;99.90
17859;DHT22;35426;30.698;104.050;2023-01-26T07:13:53;11.70;99.90
17859;DHT22;35426;30.698;104.050;2023-01-26T07:16:29;11.90;99.90
17859;DHT22;35426;30.698;104.050;2023-01-26T07:19:02;12.20;99.90
17859;DHT22;35426;30.698;104.050;2023-01-26T07:21:36;12.50;99.90
17859;DHT22;35426;30.698;104.050;2023-01-26T07:24:15;12.40;99.90
17859;DHT22;35426;30.698;104.050;2023-01-26T07:26:51;12.20;99.90
17859;DHT22;35426;30.698;104.050;2023-01-26T07:29:25;12.40;99.90
17859;DHT22;35426;30.698;104.050;2023-01-26T07:32:00;12.40;99.90
17859;DHT22;35426;30.698;104.050;2023-01-26T07:34:33;12.50;99.90
17859;DHT22;35426;30.698;104.050;2023-01-26T07:37:05;12.70;99.90
17859;DHT22;35426;30.698;104.050;2023-01-26T07:39:38;12.70;99.90
17859;DHT22;35426;30.698;104.050;2023-01-26T07:42:12;12.70;99.90
17859;DHT22;35426;30.698;104.050;2023-01-26T07:44:58;12.60;99.90
17859;DHT22;35426;30.698;104.050;2023-01-26T07:47:34;12.50;99.90
17859;DHT22;35426;30.698;104.050;2023-01-26T07:50:08;12.50;99.90
17859;DHT22;35426;30.698;104.050;2023-01-26T07:52:43;12.30;99.90
17859;DHT22;35426;30.698;104.050;2023-01-26T07:55:16;12.20;99.90
17859;DHT22;35426;30.698;104.050;2023-01-26T07:57:49;12.20;99.90
17859;DHT22;35426;30.698;104.050;2023-01-26T08:00:24;12.20;99.90
17859;DHT22;35426;30.698;104.050;2023-01-26T08:03:00;12.20;99.90
17859;DHT22;35426;30.698;104.050;2023-01-26T08:05:33;12.20;99.90
17859;DHT22;35426;30.698;104.050;2023-01-26T08:08:14;12.10;99.90
17859;DHT22;35426;30.698;104.050;2023-01-26T08:10:49;12.40;99.90
17859;DHT22;35426;30.698;104.050;2023-01-26T08:13:22;12.10;99.90
17859;DHT22;35426;30.698;104.050;2023-01-26T08:16:05;12.10;99.90
17859;DHT22;35426;30.698;104.050;2023-01-26T08:18:45;12.10;99.90
17859;DHT22;35426;30.698;104.050;2023-01-26T08:21:19;12.30;99.90
17859;DHT22;35426;30.698;104.050;2023-01-26T08:23:52;12.10;99.90
17859;DHT22;35426;30.698;104.050;2023-01-26T08:26:26;12.30;99.90
17859;DHT22;35426;30.698;104.050;2023-01-26T08:29:00;12.30;99.90
17859;DHT22;35426;30.698;104.050;2023-01-26T08:31:34;12.00;99.90
17859;DHT22;35426;30.698;104.050;2023-01-26T08:34:09;12.00;99.90
17859;DHT22;35426;30.698;104.050;2023-01-26T08:36:42;11.70;99.90
17859;DHT22;35426;30.698;104.050;2023-01-26T08:39:20;11.70;99.90
17859;DHT22;35426;30.698;104.050;2023-01-26T08:41:53;11.90;99.90
17859;DHT22;35426;30.698;104.050;2023-01-26T08:44:27;12.10;99.90
17859;DHT22;35426;30.698;104.050;2023-01-26T08:47:01;12.20;99.90
17859;DHT22;35426;30.698;104.050;2023-01-26T08:49:39;12.20;99.90
17859;DHT22;35426;30.698;104.050;2023-01-26T08:52:13;12.30;99.90
17859;DHT22;35426;30.698;104.050;2023-01-26T08:54:46;12.30;99.90
17859;DHT22;35426;30.698;104.050;2023-01-26T08:57:23;12.20;99.90
17859;DHT22;35426;30.698;104.050;2023-01-26T08:59:56;12.10;99.90
17859;DHT22;35426;30.698;104.050;2023-01-26T09:02:29;12.10;99.90
17859;DHT22;35426;30.698;104.050;2023-01-26T09:05:07;11.90;99.90
17859;DHT22;35426;30.698;104.050;2023-01-26T09:07:40;11.90;99.90
17859;DHT22;35426;30.698;104.050;2023-01-26T09:10:17;11.70;99.90
17859;DHT22;35426;30.698;104.050;2023-01-26T09:12:51;11.80;99.90
17859;DHT22;35426;30.698;104.050;2023-01-26T09:15:24;11.60;99.90
17859;DHT22;35426;30.698;104.050;2023-01-26T09:17:57;11.60;99.90
17859;DHT22;35426;30.698;104.050;2023-01-26T09:20:36;11.60;99.90
17859;DHT22;35426;30.698;104.050;2023-01-26T09:23:10;11.50;99.90
17859;DHT22;35426;30.698;104.050;2023-01-26T09:25:44;11.40;99.90
17859;DHT22;35426;30.698;104.050;2023-01-26T09:28:19;11.40;99.90
17859;DHT22;35426;30.698;104.050;2023-01-26T09:30:53;11.50;99.90
17859;DHT22;35426;30.698;104.050;2023-01-26T09:33:34;11.30;99.90
17859;DHT22;35426;30.698;104.050;2023-01-26T09:36:11;11.20;99.90
17859;DHT22;35426;30.698;104.050;2023-01-26T09:38:44;11.00;99.90
17859;DHT22;35426;30.698;104.050;2023-01-26T09:44:19;11.00;99.90
17859;DHT22;35426;30.698;104.050;2023-01-26T09:47:04;10.90;99.90
17859;DHT22;35426;30.698;104.050;2023-01-26T09:49:47;11.00;99.90
17859;DHT22;35426;30.698;104.050;2023-01-26T09:52:28;10.90;99.90
17859;DHT22;35426;30.698;104.050;2023-01-26T09:55:05;10.90;99.90
17859;DHT22;35426;30.698;104.050;2023-01-26T09:57:48;10.80;99.90
17859;DHT22;35426;30.698;104.050;2023-01-26T10:00:25;10.70;99.90
17859;DHT22;35426;30.698;104.050;2023-01-26T10:03:08;10.70;99.90
17859;DHT22;35426;30.698;104.050;2023-01-26T10:05:46;10.60;99.90
17859;DHT22;35426;30.698;104.050;2023-01-26T10:08:43;10.70;99.90
17859;DHT22;35426;30.698;104.050;2023-01-26T10:11:20;10.60;99.90
17859;DHT22;35426;30.698;104.050;2023-01-26T10:13:58;10.60;99.90
17859;DHT22;35426;30.698;104.050;2023-01-26T10:16:33;10.40;99.90
17859;DHT22;35426;30.698;104.050;2023-01-26T10:19:12;10.40;99.90
17859;DHT22;35426;30.698;104.050;2023-01-26T10:21:51;10.20;99.90
17859;DHT22;35426;30.698;104.050;2023-01-26T10:24:30;10.30;99.90
17859;DHT22;35426;30.698;104.050;2023-01-26T10:27:10;10.20;99.90
17859;DHT22;35426;30.698;104.050;2023-01-26T10:29:45;10.20;99.90
17859;DHT22;35426;30.698;104.050;2023-01-26T10:32:18;10.20;99.90
17859;DHT22;35426;30.698;104.050;2023-01-26T10:34:52;10.00;99.90
17859;DHT22;35426;30.698;104.050;2023-01-26T10:37:28;9.90;99.90
17859;DHT22;35426;30.698;104.050;2023-01-26T10:40:06;9.90;99.90
17859;DHT22;35426;30.698;104.050;2023-01-26T10:42:41;9.80;99.90
17859;DHT22;35426;30.698;104.050;2023-01-26T10:45:28;9.90;99.90
17859;DHT22;35426;30.698;104.050;2023-01-26T10:48:16;9.80;99.90
17859;DHT22;35426;30.698;104.050;2023-01-26T10:50:50;9.80;99.90
17859;DHT22;35426;30.698;104.050;2023-01-26T10:53:26;9.80;99.90
17859;DHT22;35426;30.698;104.050;2023-01-26T10:56:03;9.70;99.90
17859;DHT22;35426;30.698;104.050;2023-01-26T10:58:45;9.70;99.90
17859;DHT22;35426;30.698;104.050;2023-01-26T11:01:20;9.70;99.90
17859;DHT22;35426;30.698;104.050;2023-01-26T11:04:03;9.70;99.90
17859;DHT22;35426;30.698;104.050;2023-01-26T11:06:37;9.70;99.90
17859;DHT22;35426;30.698;104.050;2023-01-26T11:09:17;9.60;99.90
17859;DHT22;35426;30.698;104.050;2023-01-26T11:12:04;9.60;99.90
17859;DHT22;35426;30.698;104.050;2023-01-26T11:14:38;9.50;99.90
17859;DHT22;35426;30.698;104.050;2023-01-26T11:17:17;9.50;99.90
17859;DHT22;35426;30.698;104.050;2023-01-26T11:20:05;9.40;99.90
17859;DHT22;35426;30.698;104.050;2023-01-26T11:22:47;9.50;99.90
17859;DHT22;35426;30.698;104.050;2023-01-26T11:25:29;9.50;99.90
17859;DHT22;35426;30.698;104.050;2023-01-26T11:28:20;9.60;99.90
17859;DHT22;35426;30.698;104.050;2023-01-26T11:31:08;9.50;99.90
17859;DHT22;35426;30.698;104.050;2023-01-26T11:33:53;9.40;99.90
17859;DHT22;35426;30.698;104.050;2023-01-26T11:36:36;9.50;99.90
17859;DHT22;35426;30.698;104.050;2023-01-26T11:39:16;9.40;99.90
17859;DHT22;35426;30.698;104.050;2023-01-26T11:42:03;9.40;99.90
17859;DHT22;35426;30.698;104.050;2023-01-26T11:45:02;9.50;99.90
17859;DHT22;35426;30.698;104.050;2023-01-26T11:48:00;9.40;99.90
17859;DHT22;35426;30.698;104.050;2023-01-26T11:50:39;9.30;99.90
17859;DHT22;35426;30.698;104.050;2023-01-26T11:53:25;9.20;99.90
17859;DHT22;35426;30.698;104.050;2023-01-26T11:56:14;9.20;99.90
17859;DHT22;35426;30.698;104.050;2023-01-26T11:58:54;9.20;99.90
17859;DHT22;35426;30.698;104.050;2023-01-26T12:01:33;9.10;99.90
17859;DHT22;35426;30.698;104.050;2023-01-26T12:04:16;9.10;99.90
17859;DHT22;35426;30.698;104.050;2023-01-26T12:06:53;9.10;99.90
17859;DHT22;35426;30.698;104.050;2023-01-26T12:09:31;9.10;99.90
17859;DHT22;35426;30.698;104.050;2023-01-26T12:12:11;9.10;99.90
17859;DHT22;35426;30.698;104.050;2023-01-26T12:14:51;9.10;99.90
17859;DHT22;35426;30.698;104.050;2023-01-26T12:17:37;9.10;99.90
17859;DHT22;35426;30.698;104.050;2023-01-26T12:20:27;9.00;99.90
17859;DHT22;35426;30.698;104.050;2023-01-26T12:23:07;9.00;99.90
17859;DHT22;35426;30.698;104.050;2023-01-26T12:25:47;9.10;99.90
17859;DHT22;35426;30.698;104.050;2023-01-26T12:28:23;9.10;99.90
17859;DHT22;35426;30.698;104.050;2023-01-26T12:31:06;9.10;99.90
17859;DHT22;35426;30.698;104.050;2023-01-26T12:33:50;9.10;99.90
17859;DHT22;35426;30.698;104.050;2023-01-26T12:36:33;9.00;99.90
17859;DHT22;35426;30.698;104.050;2023-01-26T12:39:12;8.90;99.90
17859;DHT22;35426;30.698;104.050;2023-01-26T12:42:11;8.90;99.90
17859;DHT22;35426;30.698;104.050;2023-01-26T12:44:51;8.90;99.90
17859;DHT22;35426;30.698;104.050;2023-01-26T12:47:30;9.00;99.90
17859;DHT22;35426;30.698;104.050;2023-01-26T12:50:10;8.90;99.90
17859;DHT22;35426;30.698;104.050;2023-01-26T12:52:50;8.90;99.90
17859;DHT22;35426;30.698;104.050;2023-01-26T12:55:29;8.90;99.90
17859;DHT22;35426;30.698;104.050;2023-01-26T12:58:09;8.90;99.90
17859;DHT22;35426;30.698;104.050;2023-01-26T13:00:54;8.80;99.90
17859;DHT22;35426;30.698;104.050;2023-01-26T13:03:31;8.80;99.90
17859;DHT22;35426;30.698;104.050;2023-01-26T13:06:21;8.90;99.90
17859;DHT22;35426;30.698;104.050;2023-01-26T13:09:16;8.80;99.90
17859;DHT22;35426;30.698;104.050;2023-01-26T13:11:52;8.80;99.90
17859;DHT22;35426;30.698;104.050;2023-01-26T13:14:37;8.80;99.90
17859;DHT22;35426;30.698;104.050;2023-01-26T13:17:58;8.80;99.90
17859;DHT22;35426;30.698;104.050;2023-01-26T13:20:50;8.80;99.90
17859;DHT22;35426;30.698;104.050;2023-01-26T13:23:52;8.90;99.90
17859;DHT22;35426;30.698;104.050;2023-01-26T13:26:42;8.80;99.90
17859;DHT22;35426;30.698;104.050;2023-01-26T13:29:31;8.80;99.90
17859;DHT22;35426;30.698;104.050;2023-01-26T13:35:15;8.80;99.90
17859;DHT22;35426;30.698;104.050;2023-01-26T13:37:56;8.90;99.90
17859;DHT22;35426;30.698;104.050;2023-01-26T13:40:35;8.90;99.90
17859;DHT22;35426;30.698;104.050;2023-01-26T13:43:15;8.80;99.90
17859;DHT22;35426;30.698;104.050;2023-01-26T13:46:18;8.90;99.90
17859;DHT22;35426;30.698;104.050;2023-01-26T13:48:56;8.90;99.90
17859;DHT22;35426;30.698;104.050;2023-01-26T13:51:33;8.90;99.90
17859;DHT22;35426;30.698;104.050;2023-01-26T13:54:12;8.90;99.90
17859;DHT22;35426;30.698;104.050;2023-01-26T13:57:03;8.90;99.90
17859;DHT22;35426;30.698;104.050;2023-01-26T13:59:49;8.80;99.90
17859;DHT22;35426;30.698;104.050;2023-01-26T14:02:27;8.80;99.90
17859;DHT22;35426;30.698;104.050;2023-01-26T14:05:03;8.90;99.90
17859;DHT22;35426;30.698;104.050;2023-01-26T14:07:41;8.80;99.90
17859;DHT22;35426;30.698;104.050;2023-01-26T14:10:18;8.70;99.90
17859;DHT22;35426;30.698;104.050;2023-01-26T14:12:57;8.70;99.90
17859;DHT22;35426;30.698;104.050;2023-01-26T14:15:35;8.70;99.90
17859;DHT22;35426;30.698;104.050;2023-01-26T14:18:19;8.80;99.90
17859;DHT22;35426;30.698;104.050;2023-01-26T14:21:05;8.70;99.90
17859;DHT22;35426;30.698;104.050;2023-01-26T14:23:41;8.80;99.90
17859;DHT22;35426;30.698;104.050;2023-01-26T14:26:19;8.80;99.90
17859;DHT22;35426;30.698;104.050;2023-01-26T14:28:58;8.90;99.90
17859;DHT22;35426;30.698;104.050;2023-01-26T14:31:40;8.90;99.90
17859;DHT22;35426;30.698;104.050;2023-01-26T14:34:20;8.90;99.90
17859;DHT22;35426;30.698;104.050;2023-01-26T14:37:11;8.90;99.90
17859;DHT22;35426;30.698;104.050;2023-01-26T14:39:48;8.90;99.90
17859;DHT22;35426;30.698;104.050;2023-01-26T14:42:24;8.90;99.90
17859;DHT22;35426;30.698;104.050;2023-01-26T14:45:11;8.90;99.90
17859;DHT22;35426;30.698;104.050;2023-01-26T14:47:49;8.90;99.90
17859;DHT22;35426;30.698;104.050;2023-01-26T14:50:28;8.90;99.90
17859;DHT22;35426;30.698;104.050;2023-01-26T14:53:14;8.90;99.90
17859;DHT22;35426;30.698;104.050;2023-01-26T14:55:55;9.00;99.90
17859;DHT22;35426;30.698;104.050;2023-01-26T14:58:31;8.90;99.90
17859;DHT22;35426;30.698;104.050;2023-01-26T15:01:09;9.00;99.90
17859;DHT22;35426;30.698;104.050;2023-01-26T15:04:02;9.00;99.90
17859;DHT22;35426;30.698;104.050;2023-01-26T15:06:40;9.00;99.90
17859;DHT22;35426;30.698;104.050;2023-01-26T15:09:34;9.00;99.90
17859;DHT22;35426;30.698;104.050;2023-01-26T15:12:17;9.00;99.90
17859;DHT22;35426;30.698;104.050;2023-01-26T15:14:56;9.00;99.90
17859;DHT22;35426;30.698;104.050;2023-01-26T15:17:40;8.90;99.90
17859;DHT22;35426;30.698;104.050;2023-01-26T15:20:37;8.90;99.90
17859;DHT22;35426;30.698;104.050;2023-01-26T15:23:27;8.80;99.90
17859;DHT22;35426;30.698;104.050;2023-01-26T15:26:07;8.90;99.90
17859;DHT22;35426;30.698;104.050;2023-01-26T15:28:44;8.80;99.90
17859;DHT22;35426;30.698;104.050;2023-01-26T15:31:32;8.80;99.90
17859;DHT22;35426;30.698;104.050;2023-01-26T15:34:31;8.70;99.90
17859;DHT22;35426;30.698;104.050;2023-01-26T15:37:27;8.70;99.90
17859;DHT22;35426;30.698;104.050;2023-01-26T15:40:06;8.70;99.90
17859;DHT22;35426;30.698;104.050;2023-01-26T15:42:47;8.70;99.90
17859;DHT22;35426;30.698;104.050;2023-01-26T15:45:24;8.70;99.90
17859;DHT22;35426;30.698;104.050;2023-01-26T15:48:00;8.70;99.90
17859;DHT22;35426;30.698;104.050;2023-01-26T15:50:38;8.60;99.90
17859;DHT22;35426;30.698;104.050;2023-01-26T15:53:19;8.60;99.90
17859;DHT22;35426;30.698;104.050;2023-01-26T15:55:54;8.60;99.90
17859;DHT22;35426;30.698;104.050;2023-01-26T15:58:34;8.50;99.90
17859;DHT22;35426;30.698;104.050;2023-01-26T16:01:14;8.50;99.90
17859;DHT22;35426;30.698;104.050;2023-01-26T16:03:54;8.50;99.90
17859;DHT22;35426;30.698;104.050;2023-01-26T16:06:31;8.40;99.90
17859;DHT22;35426;30.698;104.050;2023-01-26T16:09:07;8.40;99.90
17859;DHT22;35426;30.698;104.050;2023-01-26T16:11:49;8.40;99.90
17859;DHT22;35426;30.698;104.050;2023-01-26T16:14:24;8.40;99.90
17859;DHT22;35426;30.698;104.050;2023-01-26T16:17:13;8.40;99.90
17859;DHT22;35426;30.698;104.050;2023-01-26T16:19:47;8.30;99.90
17859;DHT22;35426;30.698;104.050;2023-01-26T16:22:27;8.40;99.90
17859;DHT22;35426;30.698;104.050;2023-01-26T16:25:07;8.40;99.90
17859;DHT22;35426;30.698;104.050;2023-01-26T16:27:43;8.30;99.90
17859;DHT22;35426;30.698;104.050;2023-01-26T16:30:17;8.30;99.90
17859;DHT22;35426;30.698;104.050;2023-01-26T16:32:51;8.30;99.90